Time;durP1;ratioP1;P1;durP2;ratioP2;P2;SDS_P1;SDS_P2;PMS_P1;PMS_P2;Temp;Humidity;BMP_temperature;BMP_pressure;BME280_temperature;BME280_humidity;BME280_pressure;Samples;Min_cycle;Max_cycle;Signal;HPM_P1;HPM_P2
2024/01/05 00:02:23;;;;;;;95.70;36.30;;;;;;;4.48;63.86;98359.67;108132;1252;60478;-67
2024/01/05 00:04:51;;;;;;;97.10;38.10;;;;;;;4.55;63.65;98365.80;108209;1253;60258;-67
2024/01/05 00:07:18;;;;;;;93.60;36.60;;;;;;;4.56;63.73;98367.50;108089;1253;73819;-68
2024/01/05 00:09:46;;;;;;;98.80;38.80;;;;;;;4.58;63.55;98371.94;108155;1252;70023;-67
2024/01/05 00:12:13;;;;;;;113.70;41.70;;;;;;;4.58;63.44;98370.73;108084;1258;71478;-67
2024/01/05 00:14:41;;;;;;;99.20;39.00;;;;;;;4.55;63.43;98372.60;108058;1253;60523;-67
2024/01/05 00:17:09;;;;;;;100.00;39.20;;;;;;;4.53;63.66;98378.05;108152;1253;60602;-66
2024/01/05 00:19:36;;;;;;;97.00;38.80;;;;;;;4.52;63.74;98379.80;108062;1252;73862;-65
2024/01/05 00:22:04;;;;;;;96.40;39.00;;;;;;;4.56;63.70;98379.86;108153;1253;68998;-66
2024/01/05 00:24:31;;;;;;;109.20;41.50;;;;;;;4.56;63.70;98384.70;108075;1253;73906;-67
2024/01/05 00:26:59;;;;;;;111.70;41.30;;;;;;;4.51;63.81;98383.71;108116;1252;60469;-67
2024/01/05 00:29:27;;;;;;;89.60;37.60;;;;;;;4.52;63.88;98393.21;108105;1253;60267;-65
2024/01/05 00:31:54;;;;;;;103.60;40.10;;;;;;;4.39;64.30;98391.13;108163;1253;73890;-64
2024/01/05 00:34:22;;;;;;;126.50;45.50;;;;;;;4.34;64.36;98391.84;108261;1250;69199;-67
2024/01/05 00:36:49;;;;;;;132.90;47.30;;;;;;;4.37;64.13;98394.13;108238;1256;71057;-68
2024/01/05 00:39:17;;;;;;;116.50;42.30;;;;;;;4.31;64.01;98395.92;108224;1253;60884;-66
2024/01/05 00:41:46;;;;;;;124.60;46.00;;;;;;;4.24;64.29;98395.70;108241;1251;60289;-66
2024/01/05 00:44:16;;;;;;;106.60;42.10;;;;;;;4.37;63.88;98397.09;108040;1250;73959;-67
2024/01/05 00:46:44;;;;;;;111.80;43.70;;;;;;;4.32;63.96;98398.17;108232;1250;68853;-66
2024/01/05 00:49:12;;;;;;;101.70;40.60;;;;;;;4.18;64.20;98398.73;108224;1253;70571;-67
2024/01/05 00:51:40;;;;;;;140.90;50.90;;;;;;;4.11;64.52;98401.40;108233;1253;60454;-67
2024/01/05 00:54:07;;;;;;;118.20;43.10;;;;;;;4.12;64.52;98404.31;108115;1250;61064;-66
2024/01/05 00:56:35;;;;;;;333.40;106.90;;;;;;;4.13;64.57;98404.80;108085;1250;73866;-67
2024/01/05 00:59:02;;;;;;;173.50;60.70;;;;;;;4.20;64.29;98407.84;108169;1256;68870;-67
2024/01/05 01:01:30;;;;;;;110.90;41.80;;;;;;;4.22;64.53;98409.68;108170;1253;72673;-63
2024/01/05 01:03:57;;;;;;;108.00;42.50;;;;;;;4.24;64.39;98415.86;108196;1253;60345;-67
2024/01/05 01:06:25;;;;;;;94.60;36.00;;;;;;;4.23;64.28;98416.94;108269;1250;60345;-67
2024/01/05 01:08:52;;;;;;;107.10;41.10;;;;;;;4.34;64.31;98417.20;108211;1250;73876;-66
2024/01/05 01:11:22;;;;;;;112.50;41.10;;;;;;;4.38;63.86;98419.13;108226;1250;70118;-66
2024/01/05 01:13:54;;;;;;;92.30;35.80;;;;;;;4.48;63.71;98418.39;108234;1252;71409;-67
2024/01/05 01:16:22;;;;;;;111.00;41.80;;;;;;;4.41;64.01;98417.94;108228;1250;60358;-67
2024/01/05 01:18:50;;;;;;;118.20;40.70;;;;;;;4.37;64.21;98421.25;108278;1250;60177;-68
2024/01/05 01:21:18;;;;;;;119.20;43.80;;;;;;;4.43;64.08;98419.13;108350;1250;73061;-67
2024/01/05 01:23:46;;;;;;;107.60;42.50;;;;;;;4.44;64.17;98416.96;108249;1250;69214;-67
2024/01/05 01:26:13;;;;;;;102.90;43.30;;;;;;;4.45;63.97;98418.85;108234;1251;72694;-66
2024/01/05 01:28:41;;;;;;;135.00;48.50;;;;;;;4.39;64.31;98418.21;108245;1253;60414;-67
2024/01/05 01:31:08;;;;;;;139.00;50.70;;;;;;;4.37;64.09;98417.42;108162;1253;60346;-67
2024/01/05 01:33:36;;;;;;;133.60;49.70;;;;;;;4.40;64.08;98425.13;108155;1252;72291;-65
2024/01/05 01:36:06;;;;;;;140.30;53.90;;;;;;;4.44;63.77;98423.93;107975;1253;68749;-67
2024/01/05 01:38:33;;;;;;;130.20;49.30;;;;;;;4.34;63.95;98421.91;108185;1252;71404;-67
2024/01/05 01:41:01;;;;;;;139.20;49.70;;;;;;;4.27;64.06;98423.04;108190;1256;60421;-67
2024/01/05 01:43:29;;;;;;;137.70;48.60;;;;;;;4.24;64.27;98421.59;108150;1253;60339;-65
2024/01/05 01:46:00;;;;;;;119.50;46.60;;;;;;;4.23;64.22;98417.45;108188;1251;73854;-68
2024/01/05 01:48:29;;;;;;;127.30;45.20;;;;;;;4.21;64.23;98415.45;108204;1258;68763;-68
2024/01/05 01:50:57;;;;;;;128.00;49.50;;;;;;;4.24;64.10;98420.38;108052;1253;73678;-67
2024/01/05 01:53:25;;;;;;;124.90;47.70;;;;;;;4.20;64.12;98417.40;108224;1252;61061;-67
2024/01/05 01:55:52;;;;;;;138.80;51.70;;;;;;;4.22;63.95;98420.62;108191;1252;60479;-66
2024/01/05 01:58:20;;;;;;;156.00;53.60;;;;;;;4.24;63.90;98423.31;108032;1251;72780;-66
2024/01/05 02:00:47;;;;;;;152.70;54.80;;;;;;;4.27;63.93;98428.08;107990;1251;70805;-65
2024/01/05 02:03:15;;;;;;;152.60;52.90;;;;;;;4.25;64.18;98425.88;108120;1253;71294;-67
2024/01/05 02:05:43;;;;;;;137.50;51.80;;;;;;;4.25;63.95;98427.80;108151;1251;60481;-67
2024/01/05 02:08:11;;;;;;;137.00;51.90;;;;;;;4.23;64.02;98427.02;108222;1251;60321;-67
2024/01/05 02:10:40;;;;;;;144.80;51.00;;;;;;;4.26;63.87;98422.39;108153;1251;71779;-66
2024/01/05 02:13:08;;;;;;;134.30;51.70;;;;;;;4.26;63.93;98422.73;108110;1251;70660;-66
2024/01/05 02:15:36;;;;;;;154.60;53.40;;;;;;;4.28;63.91;98426.98;108140;1254;72502;-68
2024/01/05 02:18:13;;;;;;;141.20;50.20;;;;;;;4.29;63.96;98429.56;108105;1254;60398;-67
2024/01/05 02:20:44;;;;;;;143.50;51.80;;;;;;;4.36;63.75;98431.17;108204;1253;60576;-66
2024/01/05 02:23:41;;;;;;;130.50;51.90;;;;;;;4.40;63.81;98433.48;108120;1254;76094;-67
2024/01/05 02:26:08;;;;;;;152.20;51.90;;;;;;;4.46;63.75;98434.45;108109;1253;70039;-68
2024/01/05 02:28:37;;;;;;;139.50;51.10;;;;;;;4.44;63.95;98435.42;107945;1259;71609;-67
2024/01/05 02:31:04;;;;;;;133.50;48.40;;;;;;;4.44;63.75;98437.48;108174;1252;60328;-67
2024/01/05 02:33:32;;;;;;;138.60;48.30;;;;;;;4.48;63.69;98438.76;108293;1251;60290;-67
2024/01/05 02:36:00;;;;;;;142.50;53.00;;;;;;;4.47;63.58;98438.78;108174;1252;72798;-67
2024/01/05 02:38:27;;;;;;;134.90;50.30;;;;;;;4.46;63.81;98439.15;108188;1256;69151;-65
2024/01/05 02:40:58;;;;;;;129.50;49.40;;;;;;;4.38;63.82;98441.55;108215;1251;71542;-65
2024/01/05 02:43:25;;;;;;;131.40;47.90;;;;;;;4.38;63.88;98444.84;108139;1254;60904;-66
2024/01/05 02:45:53;;;;;;;116.00;46.10;;;;;;;4.36;63.93;98445.07;108123;1251;60530;-66
2024/01/05 02:48:20;;;;;;;137.10;49.00;;;;;;;4.42;63.92;98448.52;108153;1253;71692;-66
2024/01/05 02:50:48;;;;;;;133.20;49.80;;;;;;;4.48;63.71;98449.14;108133;1251;70491;-66
2024/01/05 02:53:15;;;;;;;130.60;49.80;;;;;;;4.52;63.94;98452.84;108127;1251;72474;-65
2024/01/05 02:55:43;;;;;;;250.50;77.20;;;;;;;4.44;64.14;98455.90;108149;1254;60911;-66
2024/01/05 02:58:11;;;;;;;146.90;54.30;;;;;;;4.42;64.21;98456.66;108198;1256;60242;-67
2024/01/05 03:00:38;;;;;;;145.90;53.70;;;;;;;4.48;63.92;98456.27;108218;1256;73097;-67
2024/01/05 03:03:06;;;;;;;141.80;53.30;;;;;;;4.49;63.95;98457.27;108211;1253;68857;-67
2024/01/05 03:05:34;;;;;;;134.70;54.10;;;;;;;4.47;64.10;98458.08;108247;1256;71479;-64
2024/01/05 03:08:03;;;;;;;146.20;54.10;;;;;;;4.48;63.94;98460.45;108242;1253;60566;-66
2024/01/05 03:10:30;;;;;;;138.40;51.60;;;;;;;4.49;63.99;98460.56;108208;1253;60239;-66
2024/01/05 03:12:58;;;;;;;133.40;50.70;;;;;;;4.52;64.07;98459.94;108299;1256;71657;-66
2024/01/05 03:15:25;;;;;;;136.60;50.70;;;;;;;4.55;64.01;98458.61;108225;1251;69310;-67
2024/01/05 03:17:53;;;;;;;139.70;54.80;;;;;;;4.50;64.23;98456.37;108236;1254;71356;-65
2024/01/05 03:20:21;;;;;;;149.20;55.30;;;;;;;4.40;64.28;98452.76;108272;1253;60302;-67
2024/01/05 03:22:48;;;;;;;132.80;51.60;;;;;;;4.41;64.12;98452.36;108235;1250;60220;-67
2024/01/05 03:25:16;;;;;;;135.60;51.60;;;;;;;4.43;64.33;98453.70;108293;1256;72554;-66
2024/01/05 03:27:43;;;;;;;120.80;47.70;;;;;;;4.44;64.06;98451.06;108265;1256;69176;-68
2024/01/05 03:30:11;;;;;;;118.80;46.80;;;;;;;4.43;64.31;98454.89;108224;1253;72708;-69
2024/01/05 03:32:39;;;;;;;126.10;47.60;;;;;;;4.49;64.41;98461.12;108208;1252;60418;-67
2024/01/05 03:35:07;;;;;;;111.40;46.40;;;;;;;4.55;64.05;98458.42;108226;1251;60204;-67
2024/01/05 03:37:34;;;;;;;107.40;42.80;;;;;;;4.62;63.90;98459.17;108277;1250;74636;-66
2024/01/05 03:40:02;;;;;;;129.90;49.10;;;;;;;4.58;64.09;98456.76;108213;1250;70454;-67
2024/01/05 03:42:30;;;;;;;120.10;43.50;;;;;;;4.65;63.71;98462.73;108364;1256;72721;-67
2024/01/05 03:44:58;;;;;;;104.00;41.60;;;;;;;4.65;63.88;98468.27;108214;1253;60843;-67
2024/01/05 03:47:25;;;;;;;99.80;37.70;;;;;;;4.71;63.54;98468.91;108210;1250;60005;-66
2024/01/05 03:49:53;;;;;;;94.80;39.10;;;;;;;4.75;63.63;98469.27;108229;1256;72542;-66
2024/01/05 03:52:20;;;;;;;109.50;40.50;;;;;;;4.74;63.54;98465.49;108235;1251;68643;-66
2024/01/05 03:54:48;;;;;;;92.00;35.00;;;;;;;4.76;63.77;98470.83;108242;1251;70981;-66
2024/01/05 03:57:16;;;;;;;91.50;36.50;;;;;;;4.74;64.05;98469.69;108212;1251;61069;-66
2024/01/05 03:59:44;;;;;;;97.60;40.40;;;;;;;4.71;64.05;98468.42;108259;1256;60322;-67
2024/01/05 04:02:11;;;;;;;89.80;37.70;;;;;;;4.62;64.27;98464.42;108219;1251;76050;-66
2024/01/05 04:04:39;;;;;;;106.10;38.90;;;;;;;4.68;64.43;98465.90;108229;1256;70447;-68
2024/01/05 04:07:07;;;;;;;97.20;40.20;;;;;;;4.69;64.08;98471.10;108329;1251;71429;-67
2024/01/05 04:09:34;;;;;;;95.90;36.60;;;;;;;4.68;64.04;98470.98;108254;1254;60851;-67
2024/01/05 04:12:03;;;;;;;103.10;37.60;;;;;;;4.73;64.05;98465.73;108225;1252;60332;-67
2024/01/05 04:14:30;;;;;;;90.10;36.50;;;;;;;4.76;63.95;98468.71;108251;1256;73845;-67
2024/01/05 04:16:58;;;;;;;100.50;40.10;;;;;;;4.82;63.90;98472.13;108299;1257;68930;-67
2024/01/05 04:19:26;;;;;;;95.30;38.60;;;;;;;4.86;63.83;98474.09;108228;1254;72701;-67
2024/01/05 04:21:53;;;;;;;82.90;36.00;;;;;;;4.84;63.76;98476.59;108207;1254;60325;-65
2024/01/05 04:24:21;;;;;;;118.20;42.10;;;;;;;4.86;63.71;98482.43;108155;1259;60325;-65
2024/01/05 04:26:49;;;;;;;104.70;37.20;;;;;;;4.85;63.72;98483.86;108199;1253;72335;-66
2024/01/05 04:29:16;;;;;;;102.00;38.60;;;;;;;4.67;64.21;98487.67;108237;1256;69521;-66
2024/01/05 04:31:44;;;;;;;102.00;39.60;;;;;;;4.60;64.71;98490.06;108175;1254;72703;-65
2024/01/05 04:34:11;;;;;;;108.70;44.00;;;;;;;4.58;64.62;98490.48;108274;1254;60908;-65
2024/01/05 04:36:39;;;;;;;117.00;46.20;;;;;;;4.57;64.58;98489.96;108035;1255;136126;-66
2024/01/05 04:39:45;;;;;;;116.10;44.80;;;;;;;3.21;69.68;98494.64;105213;1286;599830;-67
2024/01/05 04:42:12;;;;;;;114.20;44.60;;;;;;;4.04;66.64;98493.55;107356;1267;61694;-67
2024/01/05 04:44:40;;;;;;;115.60;46.50;;;;;;;4.20;66.06;98499.02;107295;1267;60151;-68
2024/01/05 04:47:08;;;;;;;113.80;45.70;;;;;;;4.36;65.60;98497.56;107353;1267;72347;-68
2024/01/05 04:49:35;;;;;;;117.90;46.70;;;;;;;4.54;65.08;98497.91;107262;1267;69427;-67
2024/01/05 04:52:04;;;;;;;128.60;49.60;;;;;;;4.52;65.25;98504.41;107278;1267;71222;-65
2024/01/05 04:54:31;;;;;;;120.90;45.90;;;;;;;4.49;65.19;98509.08;107158;1263;385004;-66
2024/01/05 04:57:01;;;;;;;132.40;50.50;;;;;;;4.43;65.55;98512.23;107391;1264;59006;-67
2024/01/05 04:59:30;;;;;;;;;;;;;;;4.41;65.59;98515.45;107324;1264;70753;-67
2024/01/05 05:01:59;;;;;;;105.00;42.90;;;;;;;4.43;65.64;98519.70;107544;1259;68172;-66
2024/01/05 05:04:26;;;;;;;122.00;49.50;;;;;;;4.48;65.66;98516.41;107487;1261;71413;-67
2024/01/05 05:06:54;;;;;;;115.00;48.10;;;;;;;4.48;65.60;98520.73;107498;1260;59678;-67
2024/01/05 05:09:22;;;;;;;133.40;50.80;;;;;;;4.51;65.88;98520.14;107516;1259;59030;-68
2024/01/05 05:11:49;;;;;;;129.00;49.30;;;;;;;4.56;65.67;98525.83;107538;1259;72965;-67
2024/01/05 05:14:17;;;;;;;108.20;43.40;;;;;;;4.59;65.73;98530.61;107498;1260;68987;-66
2024/01/05 05:16:44;;;;;;;124.30;48.60;;;;;;;4.74;65.15;98530.15;107544;1260;72670;-67
2024/01/05 05:19:12;;;;;;;119.00;47.80;;;;;;;4.84;65.10;98531.54;107419;1260;60441;-67
2024/01/05 05:21:40;;;;;;;117.90;45.90;;;;;;;4.77;65.12;98534.73;107521;1260;59522;-67
2024/01/05 05:24:07;;;;;;;126.50;48.30;;;;;;;4.62;65.48;98540.36;107548;1260;73072;-66
2024/01/05 05:26:35;;;;;;;116.00;47.60;;;;;;;4.70;65.36;98546.31;107973;1256;69948;-64
2024/01/05 05:29:04;;;;;;;122.40;43.70;;;;;;;4.79;64.95;98545.63;107914;1257;72949;-67
2024/01/05 05:31:32;;;;;;;129.20;48.20;;;;;;;4.73;65.15;98548.45;107855;1256;59513;-65
2024/01/05 05:34:00;;;;;;;112.40;44.20;;;;;;;4.77;65.16;98550.75;107890;1257;59498;-66
2024/01/05 05:36:27;;;;;;;148.60;52.00;;;;;;;4.79;64.97;98554.16;107849;1256;71855;-68
2024/01/05 05:38:55;;;;;;;108.00;44.00;;;;;;;4.75;64.95;98560.92;107857;1256;69067;-67
2024/01/05 05:41:23;;;;;;;117.30;46.60;;;;;;;4.75;65.22;98566.12;107855;1257;71819;-67
2024/01/05 05:43:50;;;;;;;144.10;51.90;;;;;;;4.78;65.12;98568.80;107888;1257;59915;-67
2024/01/05 05:46:18;;;;;;;103.70;40.80;;;;;;;4.80;65.14;98568.35;108102;1254;59477;-67
2024/01/05 05:48:46;;;;;;;126.20;49.80;;;;;;;4.85;65.03;98574.27;108083;1254;72823;-66
2024/01/05 05:51:13;;;;;;;142.60;53.70;;;;;;;4.93;64.83;98570.48;108114;1254;68728;-67
2024/01/05 05:53:41;;;;;;;134.40;51.80;;;;;;;4.63;65.68;98573.38;108062;1254;72717;-67
2024/01/05 05:56:09;;;;;;;152.40;57.70;;;;;;;4.77;65.32;98574.05;107925;1253;60541;-67
2024/01/05 05:58:36;;;;;;;141.10;55.80;;;;;;;4.85;65.15;98573.06;108141;1254;60010;-69
2024/01/05 06:01:05;;;;;;;130.90;52.20;;;;;;;4.69;65.58;98578.34;108058;1254;71579;-68
2024/01/05 06:03:32;;;;;;;134.70;49.00;;;;;;;4.78;65.43;98582.88;108042;1254;70102;-67
2024/01/05 06:06:00;;;;;;;133.10;49.70;;;;;;;4.80;65.52;98587.84;108089;1254;71267;-65
2024/01/05 06:08:28;;;;;;;121.60;49.10;;;;;;;4.80;65.19;98593.22;108120;1254;60168;-66
2024/01/05 06:10:56;;;;;;;116.90;47.50;;;;;;;4.79;65.39;98597.97;108077;1257;59533;-67
2024/01/05 06:13:23;;;;;;;99.40;37.80;;;;;;;4.83;65.60;98596.08;108135;1254;73173;-67
2024/01/05 06:15:50;;;;;;;123.60;45.80;;;;;;;4.82;65.69;98597.86;108132;1253;70322;-67
2024/01/05 06:18:18;;;;;;;97.80;40.70;;;;;;;4.83;65.47;98597.84;108089;1253;72447;-67
2024/01/05 06:20:46;;;;;;;118.60;47.80;;;;;;;4.88;65.60;98598.52;108112;1254;59659;-68
2024/01/05 06:23:13;;;;;;;114.00;45.90;;;;;;;4.82;65.85;98598.54;108073;1254;60149;-68
2024/01/05 06:25:43;;;;;;;109.60;42.90;;;;;;;4.83;65.89;98601.81;108056;1257;72516;-67
2024/01/05 06:28:11;;;;;;;113.30;48.60;;;;;;;4.87;65.99;98603.76;108123;1254;70142;-67
2024/01/05 06:30:38;;;;;;;116.70;47.20;;;;;;;4.90;65.90;98602.94;108079;1254;71721;-67
2024/01/05 06:33:07;;;;;;;206.80;83.60;;;;;;;4.96;65.89;98605.14;108034;1253;60857;-67
2024/01/05 06:35:35;;;;;;;211.10;80.20;;;;;;;4.97;65.82;98606.14;108058;1254;60031;-67
2024/01/05 06:38:02;;;;;;;210.00;85.30;;;;;;;4.98;65.65;98609.42;108010;1254;71236;-67
2024/01/05 06:40:30;;;;;;;206.50;86.70;;;;;;;5.02;65.48;98614.67;108102;1254;69987;-67
2024/01/05 06:42:57;;;;;;;191.70;78.50;;;;;;;5.05;65.41;98610.68;108036;1254;72703;-67
2024/01/05 06:45:25;;;;;;;199.70;78.20;;;;;;;5.02;65.54;98618.65;107846;1254;59878;-67
2024/01/05 06:47:52;;;;;;;182.20;72.90;;;;;;;4.90;65.81;98624.84;108007;1253;60317;-66
2024/01/05 06:50:20;;;;;;;167.90;66.30;;;;;;;4.76;66.52;98624.49;108036;1254;73092;-67
2024/01/05 06:52:48;;;;;;;139.10;56.60;;;;;;;4.78;66.52;98631.40;108036;1254;69540;-67
2024/01/05 06:55:16;;;;;;;134.40;51.50;;;;;;;4.78;66.64;98634.54;108042;1254;73150;-67
2024/01/05 06:57:43;;;;;;;104.10;44.30;;;;;;;5.04;66.05;98640.48;108030;1254;59733;-66
2024/01/05 07:00:11;;;;;;;127.20;52.70;;;;;;;5.15;65.68;98645.64;108017;1253;59631;-67
2024/01/05 07:02:38;;;;;;;106.30;44.70;;;;;;;5.20;65.62;98645.77;108034;1254;71867;-67
2024/01/05 07:05:07;;;;;;;144.60;56.60;;;;;;;5.27;65.48;98654.05;108054;1254;68928;-67
2024/01/05 07:07:35;;;;;;;135.70;56.80;;;;;;;5.26;65.94;98658.61;108039;1256;72860;-67
2024/01/05 07:10:04;;;;;;;105.30;46.20;;;;;;;5.19;65.98;98661.33;108041;1254;60024;-67
2024/01/05 07:12:31;;;;;;;138.30;54.40;;;;;;;5.16;66.05;98670.31;108077;1253;59401;-67
2024/01/05 07:14:59;;;;;;;94.50;39.70;;;;;;;5.17;66.34;98674.42;108017;1253;72327;-67
2024/01/05 07:17:26;;;;;;;82.60;33.30;;;;;;;5.19;67.84;98676.98;107876;1254;69171;-66
2024/01/05 07:19:54;;;;;;;81.00;33.50;;;;;;;5.46;68.09;98679.75;107999;1257;73074;-67
2024/01/05 07:22:22;;;;;;;81.70;32.30;;;;;;;5.63;68.06;98683.77;108020;1257;59592;-66
2024/01/05 07:24:49;;;;;;;71.00;28.10;;;;;;;5.75;68.33;98689.58;108132;1253;59166;-67
2024/01/05 07:27:17;;;;;;;61.70;25.00;;;;;;;5.85;68.41;98693.89;108088;1257;72169;-66
2024/01/05 07:29:45;;;;;;;55.00;22.10;;;;;;;5.87;68.74;98701.13;108127;1253;69103;-66
2024/01/05 07:32:13;;;;;;;51.40;21.90;;;;;;;5.98;68.58;98711.14;108042;1254;71980;-66
2024/01/05 07:34:40;;;;;;;49.00;23.00;;;;;;;5.95;68.33;98714.05;108133;1253;59649;-67
2024/01/05 07:37:08;;;;;;;48.90;21.20;;;;;;;5.98;68.17;98714.63;108127;1254;59123;-66
2024/01/05 07:39:36;;;;;;;57.90;22.90;;;;;;;6.03;67.92;98722.27;108116;1254;72880;-67
2024/01/05 07:42:04;;;;;;;43.60;19.50;;;;;;;6.14;67.74;98728.65;108175;1254;69061;-67
2024/01/05 07:44:31;;;;;;;43.40;19.90;;;;;;;6.13;67.32;98736.67;108158;1254;71441;-67
2024/01/05 07:46:59;;;;;;;44.00;19.50;;;;;;;6.19;67.39;98741.86;108017;1252;60821;-67
2024/01/05 07:49:26;;;;;;;43.50;20.50;;;;;;;6.32;66.94;98742.34;108133;1252;59998;-67
2024/01/05 07:51:54;;;;;;;42.20;18.20;;;;;;;6.34;66.71;98749.21;108066;1254;73017;-67
2024/01/05 07:54:21;;;;;;;43.20;18.30;;;;;;;6.31;66.97;98755.11;108099;1253;69427;-67
2024/01/05 07:56:49;;;;;;;34.20;14.30;;;;;;;6.28;66.78;98765.88;108051;1254;71913;-68
2024/01/05 07:59:17;;;;;;;28.00;13.30;;;;;;;6.30;66.77;98772.90;108140;1254;59638;-66
2024/01/05 08:01:44;;;;;;;31.60;13.90;;;;;;;6.35;66.57;98777.41;108166;1252;59969;-67
2024/01/05 08:04:12;;;;;;;28.30;13.00;;;;;;;6.29;66.60;98783.59;108144;1252;72965;-67
2024/01/05 08:06:40;;;;;;;27.90;12.90;;;;;;;6.25;66.73;98792.66;108093;1254;68734;-68
2024/01/05 08:09:08;;;;;;;28.00;11.70;;;;;;;6.22;66.52;98796.63;108089;1254;73282;-68
2024/01/05 08:11:35;;;;;;;25.00;11.70;;;;;;;6.23;66.34;98800.74;108036;1254;60899;-65
2024/01/05 08:14:03;;;;;;;26.60;11.10;;;;;;;6.16;66.36;98806.42;108125;1254;59708;-67
2024/01/05 08:16:30;;;;;;;23.70;11.50;;;;;;;6.19;65.96;98810.33;108115;1254;73264;-67
2024/01/05 08:18:58;;;;;;;22.30;10.40;;;;;;;6.13;65.94;98814.39;108099;1253;68691;-67
2024/01/05 08:21:25;;;;;;;22.90;10.70;;;;;;;6.14;66.06;98817.48;108094;1254;72465;-67
2024/01/05 08:23:53;;;;;;;19.80;9.30;;;;;;;6.20;65.84;98820.91;108097;1254;59951;-67
2024/01/05 08:26:21;;;;;;;20.20;9.20;;;;;;;6.19;66.03;98826.54;108053;1254;59601;-67
2024/01/05 08:28:48;;;;;;;18.80;8.10;;;;;;;6.23;65.87;98832.45;108127;1258;73042;-67
2024/01/05 08:31:16;;;;;;;15.60;8.00;;;;;;;6.31;65.65;98833.55;108040;1253;69917;-67
2024/01/05 08:33:43;;;;;;;18.40;8.50;;;;;;;6.37;65.52;98837.98;108014;1256;72443;-67
2024/01/05 08:36:11;;;;;;;16.50;8.60;;;;;;;6.40;65.65;98839.98;108018;1259;60872;-67
2024/01/05 08:38:39;;;;;;;15.30;8.30;;;;;;;6.41;65.53;98843.76;108049;1253;59634;-66
2024/01/05 08:41:06;;;;;;;16.00;7.70;;;;;;;6.38;65.53;98847.03;108005;1253;72768;-67
2024/01/05 08:43:34;;;;;;;17.30;7.60;;;;;;;6.42;65.66;98846.70;107995;1253;69465;-67
2024/01/05 08:46:05;;;;;;;;;;;;;;;6.49;65.52;98852.16;108014;1253;71450;-67
2024/01/05 08:48:32;;;;;;;15.80;7.80;;;;;;;6.51;65.69;98859.20;107988;1257;60373;-67
2024/01/05 08:51:00;;;;;;;13.70;7.60;;;;;;;6.49;65.35;98860.70;108008;1253;60315;-67
2024/01/05 08:53:27;;;;;;;14.30;7.90;;;;;;;6.54;65.32;98865.21;108004;1253;75992;-67
2024/01/05 08:55:55;;;;;;;13.00;6.70;;;;;;;6.57;65.20;98872.23;108017;1253;68759;-66
2024/01/05 08:58:22;;;;;;;15.70;8.00;;;;;;;6.62;64.89;98878.65;108034;1257;72945;-66
2024/01/05 09:00:50;;;;;;;12.80;6.60;;;;;;;6.63;65.09;98887.67;107996;1253;61211;-66
2024/01/05 09:03:18;;;;;;;11.20;6.80;;;;;;;6.55;65.21;98887.16;108010;1256;60367;-66
2024/01/05 09:05:46;;;;;;;11.70;6.70;;;;;;;6.49;64.97;98890.67;107967;1259;74745;-67
2024/01/05 09:08:13;;;;;;;11.60;6.20;;;;;;;6.52;64.84;98897.37;108066;1254;70962;-67
2024/01/05 09:10:41;;;;;;;11.60;6.10;;;;;;;6.55;64.89;98903.70;108012;1259;71078;-67
2024/01/05 09:13:08;;;;;;;14.70;6.40;;;;;;;6.58;64.51;98907.09;108026;1257;60514;-67
2024/01/05 09:15:36;;;;;;;9.80;5.30;;;;;;;6.58;64.37;98908.98;108006;1254;60332;-66
2024/01/05 09:18:05;;;;;;;9.70;6.10;;;;;;;6.54;64.18;98911.63;108044;1253;74456;-66
2024/01/05 09:20:32;;;;;;;8.70;5.20;;;;;;;6.48;64.52;98915.48;108093;1253;69037;-67
2024/01/05 09:23:00;;;;;;;10.30;5.50;;;;;;;6.52;64.29;98921.44;108018;1256;72622;-67
2024/01/05 09:25:29;;;;;;;8.00;5.20;;;;;;;6.48;64.38;98925.09;108049;1253;60874;-67
2024/01/05 09:27:59;;;;;;;10.80;5.20;;;;;;;6.40;64.57;98927.82;108046;1259;60382;-67
2024/01/05 09:30:27;;;;;;;11.30;5.70;;;;;;;6.36;64.85;98928.33;108064;1253;72549;-66
2024/01/05 09:32:57;;;;;;;10.90;6.00;;;;;;;6.32;64.81;98930.41;108096;1253;69983;-66
2024/01/05 09:35:25;;;;;;;11.40;6.00;;;;;;;6.34;65.14;98930.15;108115;1253;73298;-67
2024/01/05 09:37:53;;;;;;;10.90;5.90;;;;;;;6.37;65.07;98936.14;108009;1254;60549;-66
2024/01/05 09:40:21;;;;;;;10.90;6.60;;;;;;;6.39;65.23;98936.41;108131;1252;60239;-67
2024/01/05 09:42:50;;;;;;;11.70;6.20;;;;;;;6.48;65.12;98938.86;108100;1253;72809;-67
2024/01/05 09:45:19;;;;;;;13.80;6.70;;;;;;;6.63;64.91;98940.71;108124;1254;69528;-67
2024/01/05 09:47:51;;;;;;;13.60;7.50;;;;;;;6.74;64.70;98947.61;108068;1254;71489;-67
2024/01/05 09:50:18;;;;;;;13.10;7.30;;;;;;;6.74;64.52;98952.33;108072;1254;60415;-68
2024/01/05 09:52:46;;;;;;;12.80;7.60;;;;;;;6.78;64.38;98954.57;108063;1254;60412;-67
2024/01/05 09:55:14;;;;;;;12.40;6.70;;;;;;;6.86;63.99;98955.31;108085;1254;72810;-67
2024/01/05 09:57:42;;;;;;;16.50;8.30;;;;;;;6.92;63.79;98965.36;108104;1254;71221;-67
2024/01/05 10:00:13;;;;;;;14.50;7.80;;;;;;;6.90;63.63;98972.59;108027;1253;71440;-67
2024/01/05 10:02:45;;;;;;;13.40;7.80;;;;;;;6.84;63.53;98971.95;108112;1253;60527;-65
2024/01/05 10:05:12;;;;;;;11.70;7.60;;;;;;;6.82;63.34;98974.33;108103;1253;60325;-67
2024/01/05 10:07:42;;;;;;;16.30;8.10;;;;;;;6.81;63.17;98973.84;108050;1253;72395;-66
2024/01/05 10:10:13;;;;;;;15.50;8.20;;;;;;;6.78;62.93;98983.17;108036;1253;70832;-67
2024/01/05 10:12:41;;;;;;;14.00;7.50;;;;;;;6.77;62.66;98988.13;108067;1253;71458;-65
2024/01/05 10:15:11;;;;;;;15.70;8.60;;;;;;;6.71;62.68;98991.33;107847;1253;62124;-66
2024/01/05 10:17:39;;;;;;;14.80;7.60;;;;;;;6.60;62.78;98993.69;108016;1253;60483;-66
2024/01/05 10:20:14;;;;;;;16.60;9.10;;;;;;;6.59;62.85;98999.31;108036;1259;74144;-67
2024/01/05 10:22:48;;;;;;;16.40;8.30;;;;;;;6.47;62.74;99002.02;108031;1253;70115;-66
2024/01/05 10:25:17;;;;;;;16.10;9.00;;;;;;;6.41;62.68;99001.70;108033;1256;72824;-67
2024/01/05 10:27:46;;;;;;;17.70;10.10;;;;;;;6.38;62.44;99007.58;108018;1256;61387;-67
2024/01/05 10:30:29;;;;;;;17.70;9.60;;;;;;;6.37;62.70;99014.23;108074;1253;60045;-67
2024/01/05 10:33:05;;;;;;;20.20;10.40;;;;;;;6.35;62.65;99020.27;108034;1253;72669;-68
2024/01/05 10:35:35;;;;;;;18.00;10.40;;;;;;;6.25;62.70;99021.52;108046;1253;72685;-66
2024/01/05 10:38:04;;;;;;;19.30;9.60;;;;;;;6.24;62.62;99030.44;107977;1253;73124;-66
2024/01/05 10:40:32;;;;;;;19.50;10.60;;;;;;;6.20;62.69;99034.77;108081;1254;60456;-66
2024/01/05 10:43:10;;;;;;;21.40;11.20;;;;;;;6.12;62.74;99040.29;108006;1253;60292;-66
2024/01/05 10:45:39;;;;;;;22.20;11.00;;;;;;;6.05;62.75;99049.55;108039;1253;73953;-67
2024/01/05 10:48:13;;;;;;;18.60;10.00;;;;;;;5.99;62.97;99053.45;108024;1253;68440;-68
2024/01/05 10:50:43;;;;;;;19.80;10.70;;;;;;;5.93;63.07;99052.41;108021;1254;72601;-66
2024/01/05 10:53:11;;;;;;;24.50;12.90;;;;;;;5.91;63.29;99053.53;107894;1253;60448;-67
2024/01/05 10:55:39;;;;;;;19.60;11.50;;;;;;;5.84;63.31;99068.77;108016;1259;60459;-66
2024/01/05 10:58:07;;;;;;;21.50;11.00;;;;;;;5.86;63.11;99073.20;108078;1253;74964;-66
2024/01/05 11:00:38;;;;;;;21.80;12.40;;;;;;;5.84;63.30;99073.98;108017;1253;69226;-67
2024/01/05 11:03:13;;;;;;;23.10;12.00;;;;;;;5.65;63.54;99088.20;107997;1253;73275;-68
2024/01/05 11:05:41;;;;;;;24.90;12.70;;;;;;;5.60;63.96;99093.59;107978;1257;60853;-67
2024/01/05 11:08:16;;;;;;;25.60;13.00;;;;;;;5.53;63.99;99098.54;108053;1253;60316;-67
2024/01/05 11:10:53;;;;;;;22.70;10.90;;;;;;;5.49;64.15;99102.15;108037;1253;73048;-67
2024/01/05 11:13:53;;;;;;;22.10;11.90;;;;;;;5.46;64.27;99105.38;107998;1253;68754;-67
2024/01/05 11:16:52;;;;;;;24.10;12.70;;;;;;;5.46;64.23;99113.39;107768;1255;74858;-67
2024/01/05 11:19:42;;;;;;;19.20;10.40;;;;;;;5.47;63.90;99119.63;108016;1253;61005;-67
2024/01/05 11:22:14;;;;;;;23.00;12.30;;;;;;;5.34;64.11;99129.62;108001;1253;60808;-67